Time;durP1;ratioP1;P1;durP2;ratioP2;P2;SDS_P1;SDS_P2;PMS_P1;PMS_P2;Temp;Humidity;BMP_temperature;BMP_pressure;BME280_temperature;BME280_humidity;BME280_pressure;Samples;Min_cycle;Max_cycle;Signal;HPM_P1;HPM_P2
2021/12/10 00:00:04;;;;;;;33.50;19.55;;;5.50;97.00;;;;;;5139244;27;38828;-54
2021/12/10 00:02:35;;;;;;;30.55;18.83;;;5.50;96.90;;;;;;5139776;27;38181;-54
2021/12/10 00:05:03;;;;;;;40.63;20.80;;;5.50;96.90;;;;;;5137625;27;36505;-55
2021/12/10 00:07:31;;;;;;;37.88;21.65;;;5.50;96.90;;;;;;5138692;27;39330;-56
2021/12/10 00:10:02;;;;;;;34.42;18.25;;;5.50;96.80;;;;;;5138646;27;37988;-56
2021/12/10 00:12:32;;;;;;;33.65;19.15;;;5.50;96.80;;;;;;5138547;27;36197;-63
2021/12/10 00:15:02;;;;;;;31.70;18.58;;;5.50;96.80;;;;;;5137954;27;37845;-64
2021/12/10 00:17:30;;;;;;;33.00;17.98;;;5.50;96.80;;;;;;5137628;27;37698;-63
2021/12/10 00:19:59;;;;;;;31.58;17.10;;;5.50;96.80;;;;;;5137601;27;39991;-64
2021/12/10 00:22:36;;;;;;;25.80;16.60;;;5.60;96.70;;;;;;5138861;27;36201;-64
2021/12/10 00:25:07;;;;;;;30.05;17.30;;;5.60;96.70;;;;;;5138521;27;37339;-64
2021/12/10 00:27:36;;;;;;;29.38;16.05;;;5.60;96.40;;;;;;5138120;27;37108;-64
2021/12/10 00:30:09;;;;;;;30.35;16.70;;;5.60;96.30;;;;;;5138456;27;37213;-64
2021/12/10 00:32:43;;;;;;;26.25;15.73;;;5.50;96.30;;;;;;5138154;27;38448;-64
2021/12/10 00:35:14;;;;;;;29.60;16.92;;;5.60;96.40;;;;;;5138537;27;37025;-64
2021/12/10 00:37:41;;;;;;;33.10;17.13;;;5.60;96.40;;;;;;5139551;27;36176;-64
2021/12/10 00:40:12;;;;;;;29.55;15.50;;;5.60;96.30;;;;;;5137973;27;37848;-63
2021/12/10 00:42:39;;;;;;;31.52;16.83;;;5.60;96.30;;;;;;5139852;27;37633;-64
2021/12/10 00:45:12;;;;;;;33.85;16.25;;;5.60;96.30;;;;;;5138962;27;34037;-64
2021/12/10 00:47:40;;;;;;;30.02;17.17;;;5.60;96.40;;;;;;5138129;27;38818;-64
2021/12/10 00:50:12;;;;;;;28.65;16.50;;;5.60;96.50;;;;;;5138953;27;36508;-64
2021/12/10 00:52:42;;;;;;;29.67;15.40;;;5.70;96.40;;;;;;5138057;27;39367;-64
2021/12/10 00:55:10;;;;;;;28.88;17.13;;;5.70;96.40;;;;;;5138155;27;34476;-64
2021/12/10 00:57:38;;;;;;;30.23;16.65;;;5.70;96.30;;;;;;5137710;27;37845;-64
2021/12/10 01:00:10;;;;;;;28.27;17.23;;;5.70;96.30;;;;;;5138215;27;37633;-64
2021/12/10 01:02:37;;;;;;;35.17;17.13;;;5.60;96.00;;;;;;5138477;27;37673;-64
2021/12/10 01:05:07;;;;;;;31.75;16.02;;;5.70;96.10;;;;;;5139042;27;36940;-64
2021/12/10 01:07:36;;;;;;;33.92;15.45;;;5.60;96.10;;;;;;5137585;27;38077;-64
2021/12/10 01:10:10;;;;;;;25.77;15.05;;;5.60;96.10;;;;;;5137948;27;36487;-64
2021/12/10 01:12:42;;;;;;;30.75;15.70;;;5.60;96.10;;;;;;5138701;27;37547;-64
2021/12/10 01:15:36;;;;;;;25.60;14.77;;;5.70;96.20;;;;;;5136047;27;37021;-64
2021/12/10 01:23:49;;;;;;;26.42;15.48;;;5.70;96.10;;;;;;5137286;27;39802;-64
2021/12/10 01:26:36;;;;;;;31.52;13.90;;;5.70;96.10;;;;;;5137935;27;35652;-64
2021/12/10 01:29:06;;;;;;;29.25;14.68;;;5.80;96.00;;;;;;5136727;27;36843;-63
2021/12/10 01:31:34;;;;;;;24.40;14.20;;;5.80;95.90;;;;;;5137835;27;37643;-61
2021/12/10 01:34:02;;;;;;;26.50;14.20;;;5.80;95.90;;;;;;5137888;27;38375;-64
2021/12/10 01:36:30;;;;;;;32.78;15.73;;;5.90;95.70;;;;;;5137446;27;37412;-64
2021/12/10 01:38:57;;;;;;;27.25;14.38;;;5.90;95.80;;;;;;5136597;27;36272;-63
2021/12/10 01:41:33;;;;;;;28.55;14.52;;;6.00;95.70;;;;;;5137734;27;37857;-64
2021/12/10 01:44:04;;;;;;;26.00;13.73;;;6.00;95.60;;;;;;5137340;27;38840;-64
2021/12/10 01:46:38;;;;;;;26.42;14.68;;;6.00;95.50;;;;;;5138188;27;36739;-63
2021/12/10 01:49:08;;;;;;;26.70;14.32;;;6.10;95.50;;;;;;5136905;27;37516;-64
2021/12/10 01:51:39;;;;;;;20.83;12.90;;;6.00;95.30;;;;;;5137827;27;37240;-64
2021/12/10 01:54:13;;;;;;;24.02;12.95;;;5.90;95.40;;;;;;5135126;27;38479;-64
2021/12/10 01:56:42;;;;;;;21.30;13.55;;;5.90;95.40;;;;;;5137002;27;35544;-56
2021/12/10 01:59:12;;;;;;;26.30;14.70;;;5.90;95.30;;;;;;5136742;27;36254;-55
2021/12/10 02:01:41;;;;;;;32.85;13.35;;;5.90;95.20;;;;;;5134146;27;38546;-56
2021/12/10 02:04:14;;;;;;;24.38;12.80;;;5.90;95.20;;;;;;5137894;27;37422;-55
2021/12/10 02:06:42;;;;;;;24.83;13.00;;;5.90;95.10;;;;;;5134708;27;37149;-56
2021/12/10 02:09:11;;;;;;;27.58;13.80;;;5.90;95.00;;;;;;5137668;27;36319;-55
2021/12/10 02:11:38;;;;;;;29.17;13.82;;;5.90;95.00;;;;;;5135976;27;37735;-55
2021/12/10 02:14:06;;;;;;;19.95;10.55;;;5.90;95.00;;;;;;5137843;27;37212;-56
2021/12/10 02:16:36;;;;;;;19.90;10.68;;;5.90;95.00;;;;;;5137279;27;36771;-55
2021/12/10 02:19:04;;;;;;;23.00;10.25;;;5.90;94.90;;;;;;5136634;27;38049;-56
2021/12/10 02:21:34;;;;;;;18.00;9.18;;;5.90;94.70;;;;;;5137302;27;38231;-56
2021/12/10 02:24:04;;;;;;;18.77;9.52;;;5.80;94.60;;;;;;5136841;27;37766;-55
2021/12/10 02:26:34;;;;;;;22.92;9.80;;;5.70;94.80;;;;;;5137552;27;36158;-55
2021/12/10 02:29:03;;;;;;;18.15;9.05;;;5.70;94.90;;;;;;5135551;27;37769;-56
2021/12/10 02:31:30;;;;;;;20.98;9.68;;;5.60;94.70;;;;;;5140080;27;39177;-55
2021/12/10 02:34:01;;;;;;;20.30;9.95;;;5.50;94.70;;;;;;5140816;27;38684;-55
2021/12/10 02:36:28;;;;;;;25.90;11.63;;;5.60;94.70;;;;;;5140736;27;36237;-56
2021/12/10 02:38:58;;;;;;;19.02;9.75;;;5.60;94.90;;;;;;5140047;27;37693;-56
2021/12/10 02:41:28;;;;;;;18.85;10.27;;;5.60;95.00;;;;;;5139782;27;36538;-55
2021/12/10 02:43:56;;;;;;;18.52;9.82;;;5.70;95.10;;;;;;5140735;27;39279;-55
2021/12/10 02:46:23;;;;;;;20.27;9.88;;;5.60;94.90;;;;;;5140369;27;36710;-55
2021/12/10 02:48:50;;;;;;;17.33;9.07;;;5.60;94.70;;;;;;5140255;27;40030;-55
2021/12/10 02:51:18;;;;;;;21.20;10.25;;;5.70;94.80;;;;;;5140025;27;38371;-55
2021/12/10 02:53:46;;;;;;;22.52;9.57;;;5.70;94.80;;;;;;5139729;27;38656;-55
2021/12/10 02:56:17;;;;;;;22.20;9.55;;;5.70;94.70;;;;;;5140671;27;35622;-55
2021/12/10 02:58:47;;;;;;;20.15;9.98;;;5.70;94.70;;;;;;5138945;27;37873;-55
2021/12/10 03:01:18;;;;;;;17.88;9.52;;;5.70;94.60;;;;;;5139630;27;38136;-55
2021/12/10 03:03:46;;;;;;;21.08;9.50;;;5.70;94.60;;;;;;5140226;27;37534;-56
2021/12/10 03:06:15;;;;;;;18.83;10.88;;;5.70;94.70;;;;;;5141218;27;36672;-55
2021/12/10 03:08:45;;;;;;;21.60;9.55;;;5.80;94.50;;;;;;5138871;27;38058;-55
2021/12/10 03:11:16;;;;;;;20.85;8.95;;;5.80;94.60;;;;;;5139949;27;38232;-55
2021/12/10 03:13:44;;;;;;;18.30;8.77;;;5.70;94.30;;;;;;5139265;27;37657;-55
2021/12/10 03:16:12;;;;;;;17.20;9.18;;;5.70;94.50;;;;;;5139946;27;36689;-55
2021/12/10 03:18:42;;;;;;;22.17;10.18;;;5.80;94.30;;;;;;5138541;27;37556;-55
2021/12/10 03:21:11;;;;;;;21.27;10.05;;;5.80;94.40;;;;;;5140528;27;37216;-55
2021/12/10 03:23:47;;;;;;;25.20;11.57;;;5.80;94.40;;;;;;5139301;27;39066;-55
2021/12/10 03:26:18;;;;;;;20.38;10.95;;;5.80;94.30;;;;;;5139037;27;36918;-56
2021/12/10 03:28:47;;;;;;;24.60;10.68;;;5.80;94.40;;;;;;5138787;27;37581;-56
2021/12/10 03:31:15;;;;;;;21.85;10.77;;;5.80;94.30;;;;;;5140576;27;37605;-56
2021/12/10 03:33:43;;;;;;;21.10;10.70;;;5.80;94.30;;;;;;5138985;27;37914;-55
2021/12/10 03:36:11;;;;;;;22.17;10.82;;;5.80;94.40;;;;;;5140807;27;37503;-56
2021/12/10 03:38:40;;;;;;;25.08;11.38;;;5.70;94.30;;;;;;5140449;27;36469;-55
2021/12/10 03:41:09;;;;;;;23.50;10.77;;;5.70;94.40;;;;;;5138190;27;39128;-55
2021/12/10 03:43:39;;;;;;;24.25;10.55;;;5.70;94.40;;;;;;5139423;27;37322;-56
2021/12/10 03:46:07;;;;;;;21.33;11.32;;;5.80;94.40;;;;;;5139222;27;37220;-56
2021/12/10 03:48:40;;;;;;;21.88;10.80;;;5.80;94.40;;;;;;5139551;27;39080;-55
2021/12/10 03:51:10;;;;;;;28.13;12.27;;;5.70;94.40;;;;;;5139327;27;36505;-55
2021/12/10 03:53:38;;;;;;;21.92;11.50;;;5.80;94.50;;;;;;5140207;27;37691;-56
2021/12/10 03:56:09;;;;;;;22.27;11.95;;;5.80;94.50;;;;;;5138856;27;37034;-55
2021/12/10 03:58:38;;;;;;;19.75;11.07;;;5.80;94.40;;;;;;5138605;27;37147;-55
2021/12/10 04:01:07;;;;;;;22.65;10.38;;;5.80;94.50;;;;;;5138085;27;37849;-55
2021/12/10 04:03:35;;;;;;;17.30;10.98;;;5.80;94.30;;;;;;5140297;27;38762;-56
2021/12/10 04:06:02;;;;;;;22.48;10.07;;;5.80;94.20;;;;;;5136410;27;37765;-55
2021/12/10 04:08:30;;;;;;;21.40;10.43;;;5.80;94.20;;;;;;5137374;27;38372;-55
2021/12/10 04:10:59;;;;;;;20.52;10.15;;;5.80;94.20;;;;;;5138510;27;40605;-55
2021/12/10 04:13:26;;;;;;;19.42;10.45;;;5.80;94.40;;;;;;5139760;27;37878;-55
2021/12/10 04:15:55;;;;;;;21.05;10.32;;;5.70;94.10;;;;;;5138627;27;37063;-55
2021/12/10 04:18:23;;;;;;;21.38;10.35;;;5.70;94.20;;;;;;5136215;27;38236;-56
2021/12/10 04:20:50;;;;;;;20.88;10.10;;;5.70;94.10;;;;;;5137916;27;37966;-56
2021/12/10 04:23:20;;;;;;;18.30;10.48;;;5.70;94.20;;;;;;5139543;27;37342;-55
2021/12/10 04:25:48;;;;;;;18.33;9.85;;;5.80;94.20;;;;;;5139692;27;36232;-55
2021/12/10 04:28:18;;;;;;;18.73;9.93;;;5.70;94.10;;;;;;5136974;27;37583;-56
2021/12/10 04:30:47;;;;;;;21.55;9.75;;;5.80;94.00;;;;;;5139546;27;38224;-55
2021/12/10 04:33:21;;;;;;;23.98;11.02;;;5.70;94.00;;;;;;5138944;27;38183;-56
2021/12/10 04:35:50;;;;;;;24.27;12.98;;;5.70;93.90;;;;;;5140192;27;35484;-55
2021/12/10 04:38:19;;;;;;;19.88;12.25;;;5.70;93.70;;;;;;5139155;27;36396;-55
2021/12/10 04:40:49;;;;;;;20.98;11.02;;;5.60;93.50;;;;;;5139038;27;38948;-55
2021/12/10 04:43:19;;;;;;;20.45;11.68;;;5.60;93.40;;;;;;5138778;27;38212;-55
2021/12/10 04:45:46;;;;;;;26.90;12.10;;;5.60;93.50;;;;;;5139055;27;36570;-55
2021/12/10 04:48:15;;;;;;;23.35;12.02;;;5.60;93.50;;;;;;5138772;27;40482;-55
2021/12/10 04:50:43;;;;;;;27.23;11.10;;;5.60;93.70;;;;;;5139410;27;37574;-55
2021/12/10 04:53:12;;;;;;;17.15;11.75;;;5.60;93.40;;;;;;5136955;27;38497;-55
2021/12/10 04:55:41;;;;;;;19.20;12.07;;;5.50;93.40;;;;;;5138953;27;35362;-55
2021/12/10 04:58:09;;;;;;;18.52;11.18;;;5.50;93.20;;;;;;5137598;27;36449;-55
2021/12/10 05:00:40;;;;;;;17.85;10.95;;;5.40;93.10;;;;;;5137052;27;36476;-55
2021/12/10 05:03:08;;;;;;;19.58;11.13;;;5.40;93.20;;;;;;5138451;27;37686;-55
2021/12/10 05:05:38;;;;;;;16.17;11.13;;;5.30;93.20;;;;;;5137771;27;36435;-55
2021/12/10 05:08:07;;;;;;;18.50;10.65;;;5.30;93.20;;;;;;5134872;27;37454;-56
2021/12/10 05:10:35;;;;;;;20.00;11.23;;;5.30;93.20;;;;;;5137828;27;37574;-55
2021/12/10 05:13:03;;;;;;;17.27;11.45;;;5.20;93.10;;;;;;5135114;27;37530;-55
2021/12/10 05:15:34;;;;;;;19.00;10.48;;;5.20;93.10;;;;;;5138977;27;34900;-55
2021/12/10 05:18:02;;;;;;;18.30;11.85;;;5.10;93.10;;;;;;5136932;27;37146;-55
2021/12/10 05:20:35;;;;;;;21.48;12.02;;;5.10;93.00;;;;;;5138209;27;39966;-55
2021/12/10 05:23:04;;;;;;;22.85;12.57;;;5.00;93.00;;;;;;5138139;27;38249;-55
2021/12/10 05:25:32;;;;;;;20.40;12.82;;;5.60;93.20;;;;;;5138376;27;37664;-55
2021/12/10 05:28:00;;;;;;;21.05;13.02;;;5.00;93.00;;;;;;5136184;27;37500;-56
2021/12/10 05:30:31;;;;;;;26.98;14.68;;;5.00;93.00;;;;;;5137517;27;36471;-55
2021/12/10 05:33:00;;;;;;;25.15;13.85;;;4.90;93.00;;;;;;5136254;27;36499;-55
2021/12/10 05:35:28;;;;;;;19.58;13.20;;;5.00;93.10;;;;;;5137742;27;37402;-55
2021/12/10 05:37:55;;;;;;;22.92;14.30;;;5.00;93.20;;;;;;5135678;27;38720;-55
2021/12/10 05:40:24;;;;;;;23.20;14.32;;;5.00;93.30;;;;;;5138147;27;39168;-55
2021/12/10 05:42:52;;;;;;;22.75;13.35;;;5.00;93.40;;;;;;5134623;27;37708;-55
2021/12/10 05:45:23;;;;;;;20.45;12.30;;;5.00;93.30;;;;;;5137704;27;38137;-55
2021/12/10 05:47:50;;;;;;;21.45;12.93;;;5.00;93.30;;;;;;5136373;27;38765;-55
2021/12/10 05:50:22;;;;;;;21.42;13.57;;;5.00;93.30;;;;;;5138046;27;39003;-55
2021/12/10 05:52:49;;;;;;;25.02;14.05;;;4.90;93.30;;;;;;5135195;27;37390;-55
2021/12/10 05:55:17;;;;;;;24.17;12.60;;;4.90;93.20;;;;;;5137993;27;36674;-55
2021/12/10 05:57:46;;;;;;;19.75;13.48;;;4.90;93.30;;;;;;5136349;27;39427;-55
2021/12/10 06:00:17;;;;;;;23.23;13.02;;;4.80;93.20;;;;;;5135727;27;38725;-55
2021/12/10 06:02:44;;;;;;;22.33;12.82;;;4.80;93.20;;;;;;5136386;27;37716;-55
2021/12/10 06:05:12;;;;;;;24.70;12.35;;;4.80;93.20;;;;;;5137302;27;39218;-55
2021/12/10 06:07:39;;;;;;;19.38;13.52;;;4.70;93.30;;;;;;5136059;27;37615;-55
2021/12/10 06:10:10;;;;;;;20.40;12.35;;;4.70;93.40;;;;;;5135919;27;39061;-55
2021/12/10 06:12:37;;;;;;;18.73;11.95;;;4.70;93.40;;;;;;5134856;27;37374;-55
2021/12/10 06:15:08;;;;;;;21.73;13.73;;;4.60;93.40;;;;;;5137101;27;36851;-55
2021/12/10 06:17:35;;;;;;;22.60;14.15;;;4.60;93.50;;;;;;5135733;27;38480;-55
2021/12/10 06:20:09;;;;;;;22.77;13.48;;;4.50;93.50;;;;;;5137650;27;36356;-55
2021/12/10 06:22:37;;;;;;;22.92;14.10;;;4.50;93.60;;;;;;5135290;27;36834;-55
2021/12/10 06:25:06;;;;;;;21.40;12.98;;;4.50;93.60;;;;;;5138484;27;37044;-55
2021/12/10 06:27:33;;;;;;;23.13;13.95;;;4.40;93.70;;;;;;5134465;27;38282;-55
2021/12/10 06:30:02;;;;;;;18.77;12.98;;;4.50;93.80;;;;;;5136255;27;37323;-55
2021/12/10 06:32:31;;;;;;;19.77;14.15;;;4.40;94.00;;;;;;5135727;27;39053;-55
2021/12/10 06:34:59;;;;;;;22.23;15.07;;;4.50;93.90;;;;;;5136457;27;36623;-55
2021/12/10 06:37:26;;;;;;;25.15;13.65;;;4.40;93.80;;;;;;5136769;27;38438;-55
2021/12/10 06:39:53;;;;;;;20.33;12.90;;;4.50;93.90;;;;;;5137411;27;36444;-55
2021/12/10 06:42:21;;;;;;;19.08;12.73;;;4.40;93.90;;;;;;5135641;27;37217;-55
2021/12/10 06:44:48;;;;;;;17.70;12.70;;;4.40;93.80;;;;;;5136269;27;36732;-55
2021/12/10 06:47:16;;;;;;;18.83;12.95;;;4.40;93.80;;;;;;5137382;27;38040;-55
2021/12/10 06:49:44;;;;;;;19.40;13.05;;;4.40;93.80;;;;;;5136838;27;38140;-55
2021/12/10 06:52:12;;;;;;;19.85;13.52;;;4.30;93.80;;;;;;5135302;27;37478;-55
2021/12/10 06:54:39;;;;;;;18.15;12.35;;;4.30;93.80;;;;;;5136644;27;37598;-55
2021/12/10 06:57:07;;;;;;;17.83;11.50;;;4.30;93.80;;;;;;5137349;27;36939;-55
2021/12/10 06:59:34;;;;;;;18.60;11.88;;;4.30;93.80;;;;;;5136089;27;38398;-55
2021/12/10 07:02:02;;;;;;;19.20;12.73;;;4.30;93.70;;;;;;5136825;27;36447;-56
2021/12/10 07:04:29;;;;;;;21.48;12.35;;;4.20;93.80;;;;;;5136326;27;36695;-55
2021/12/10 07:06:58;;;;;;;16.30;11.77;;;4.20;93.80;;;;;;5136740;27;37453;-55
2021/12/10 07:09:26;;;;;;;20.13;11.82;;;4.20;93.80;;;;;;5135932;27;37718;-56
2021/12/10 07:11:55;;;;;;;18.85;12.10;;;4.20;93.90;;;;;;5134171;27;37147;-56
2021/12/10 07:14:23;;;;;;;16.10;10.63;;;4.10;93.80;;;;;;5136708;27;36839;-55
2021/12/10 07:16:51;;;;;;;16.20;10.98;;;4.10;93.90;;;;;;5137639;27;39524;-55
2021/12/10 07:19:19;;;;;;;13.40;9.48;;;4.10;93.80;;;;;;5137935;27;39238;-56
2021/12/10 07:21:47;;;;;;;17.50;10.50;;;4.10;93.80;;;;;;5139733;27;38915;-55
2021/12/10 07:24:19;;;;;;;15.80;10.55;;;4.10;93.80;;;;;;5140538;27;35533;-55
2021/12/10 07:26:48;;;;;;;16.38;9.65;;;4.10;93.80;;;;;;5139835;27;36251;-55
2021/12/10 07:29:16;;;;;;;13.90;9.63;;;4.10;93.80;;;;;;5138254;27;37814;-55
2021/12/10 07:31:46;;;;;;;14.40;9.90;;;4.10;93.70;;;;;;5139725;27;37372;-55
2021/12/10 07:34:13;;;;;;;15.90;9.48;;;4.10;93.80;;;;;;5137460;27;36459;-55
2021/12/10 07:36:41;;;;;;;17.02;9.25;;;4.10;93.70;;;;;;5139419;27;37978;-55
2021/12/10 07:39:09;;;;;;;18.02;9.77;;;4.10;93.70;;;;;;5135757;27;39895;-55
2021/12/10 07:41:40;;;;;;;13.48;9.48;;;4.00;93.70;;;;;;5137651;27;36266;-55
2021/12/10 07:44:10;;;;;;;18.80;8.68;;;4.00;93.90;;;;;;5138623;27;38352;-56
2021/12/10 07:46:39;;;;;;;16.00;8.55;;;4.00;93.70;;;;;;5139361;27;39010;-56
2021/12/10 07:49:14;;;;;;;15.20;9.85;;;4.00;93.90;;;;;;5139582;27;38301;-55
2021/12/10 07:51:44;;;;;;;14.20;8.57;;;4.00;93.70;;;;;;5138228;27;39319;-56
2021/12/10 07:54:12;;;;;;;15.98;8.48;;;4.00;93.60;;;;;;5138799;27;36407;-56
2021/12/10 07:56:40;;;;;;;15.45;8.10;;;4.00;93.60;;;;;;5138453;27;37503;-55
2021/12/10 07:59:08;;;;;;;12.57;8.02;;;4.00;93.50;;;;;;5137510;27;39861;-55
2021/12/10 08:01:35;;;;;;;13.85;8.40;;;4.00;93.50;;;;;;5137395;27;37488;-55
2021/12/10 08:04:05;;;;;;;14.77;8.43;;;4.00;93.50;;;;;;5138239;27;35392;-56
2021/12/10 08:06:33;;;;;;;17.77;8.60;;;3.90;93.50;;;;;;5137716;27;37734;-55
2021/12/10 08:09:01;;;;;;;12.82;7.97;;;4.00;93.50;;;;;;5136231;27;38249;-55
2021/12/10 08:11:29;;;;;;;12.35;7.20;;;4.00;93.60;;;;;;5138113;27;37903;-56
2021/12/10 08:13:58;;;;;;;13.95;7.60;;;4.00;93.60;;;;;;5136985;27;35365;-56
2021/12/10 08:16:26;;;;;;;16.92;7.70;;;4.00;93.60;;;;;;5138710;27;36420;-55
2021/12/10 08:18:53;;;;;;;20.90;10.68;;;4.00;93.60;;;;;;5137217;27;39327;-55
2021/12/10 08:21:22;;;;;;;13.43;7.82;;;4.10;93.60;;;;;;5137848;27;37642;-56
2021/12/10 08:23:50;;;;;;;12.85;7.97;;;4.10;93.80;;;;;;5136973;27;36801;-55
2021/12/10 08:26:18;;;;;;;23.67;9.43;;;4.10;93.50;;;;;;5135485;27;38988;-55
2021/12/10 08:28:46;;;;;;;14.48;8.25;;;4.20;93.50;;;;;;5131775;27;37959;-56
2021/12/10 08:31:16;;;;;;;13.45;8.48;;;4.30;93.50;;;;;;5133477;27;37487;-56
2021/12/10 08:33:47;;;;;;;17.42;8.15;;;4.40;93.40;;;;;;5136162;27;37355;-56
2021/12/10 08:36:16;;;;;;;13.88;8.25;;;4.50;93.10;;;;;;5136781;27;37538;-56
2021/12/10 08:38:45;;;;;;;12.15;7.63;;;4.60;92.90;;;;;;5137585;27;37242;-55
2021/12/10 08:41:15;;;;;;;14.15;8.25;;;4.70;92.70;;;;;;5137368;27;36895;-56
2021/12/10 08:43:43;;;;;;;13.70;7.60;;;4.70;92.70;;;;;;5135108;27;36496;-56
2021/12/10 08:46:11;;;;;;;13.80;7.60;;;4.80;92.70;;;;;;5136581;27;38498;-55
2021/12/10 08:48:40;;;;;;;11.23;7.95;;;4.90;92.60;;;;;;5134382;27;39207;-56
2021/12/10 08:51:10;;;;;;;13.77;7.45;;;5.00;92.60;;;;;;5136940;27;36142;-56
2021/12/10 08:53:37;;;;;;;15.50;8.05;;;5.00;92.50;;;;;;5136038;27;37879;-55
2021/12/10 08:56:05;;;;;;;13.35;6.72;;;5.10;92.50;;;;;;5136996;27;37479;-55
2021/12/10 08:58:33;;;;;;;13.77;8.32;;;5.10;92.20;;;;;;5134569;27;37768;-56
2021/12/10 09:01:06;;;;;;;12.38;7.57;;;5.10;92.20;;;;;;5137329;27;36417;-55
2021/12/10 09:03:34;;;;;;;11.90;7.75;;;5.30;92.10;;;;;;5136868;27;37109;-56
2021/12/10 09:06:05;;;;;;;14.88;6.78;;;5.40;92.00;;;;;;5136151;27;37817;-55
2021/12/10 09:08:32;;;;;;;12.80;6.88;;;5.70;91.40;;;;;;5135854;27;36525;-56
2021/12/10 09:11:00;;;;;;;10.57;6.53;;;5.90;91.10;;;;;;5136212;27;37184;-56
2021/12/10 09:13:28;;;;;;;14.27;8.07;;;6.10;90.60;;;;;;5136949;27;36535;-56
2021/12/10 09:15:59;;;;;;;10.98;6.63;;;6.40;90.40;;;;;;5135763;27;37710;-56
2021/12/10 09:18:28;;;;;;;13.93;6.63;;;6.50;90.00;;;;;;5136299;27;39905;-56
2021/12/10 09:21:02;;;;;;;9.85;6.40;;;6.50;89.80;;;;;;5136087;27;39776;-56
2021/12/10 09:23:32;;;;;;;12.90;6.28;;;6.60;89.80;;;;;;5137343;27;40175;-56
2021/12/10 09:26:05;;;;;;;12.20;6.25;;;6.50;89.80;;;;;;5136528;27;39227;-56
2021/12/10 09:28:33;;;;;;;10.48;6.07;;;6.60;90.00;;;;;;5134771;27;40166;-56
2021/12/10 09:31:01;;;;;;;9.40;5.88;;;7.10;89.60;;;;;;5135593;27;37887;-56
2021/12/10 09:33:29;;;;;;;10.80;5.55;;;6.90;88.60;;;;;;5135761;27;36603;-56
2021/12/10 09:35:57;;;;;;;10.43;5.97;;;7.00;88.80;;;;;;5136140;27;37322;-56
2021/12/10 09:38:25;;;;;;;9.88;5.65;;;7.10;88.30;;;;;;5136151;27;38442;-56
2021/12/10 09:40:57;;;;;;;10.25;5.70;;;7.30;87.90;;;;;;5135985;27;39558;-56
2021/12/10 09:43:25;;;;;;;11.77;5.85;;;7.40;87.30;;;;;;5135678;27;37592;-56
2021/12/10 09:45:53;;;;;;;8.93;5.18;;;7.60;86.90;;;;;;5136270;27;37699;-56
2021/12/10 09:48:22;;;;;;;9.68;5.25;;;7.70;86.70;;;;;;5135300;27;38561;-56
2021/12/10 09:50:55;;;;;;;10.35;5.15;;;7.90;85.80;;;;;;5136546;27;37666;-56
2021/12/10 09:53:23;;;;;;;10.10;5.55;;;7.90;85.40;;;;;;5134575;27;35292;-56
2021/12/10 09:55:51;;;;;;;9.05;5.18;;;8.00;85.20;;;;;;5135474;27;36227;-56
2021/12/10 09:58:20;;;;;;;10.05;4.97;;;8.00;85.40;;;;;;5135305;27;40457;-56
2021/12/10 10:00:50;;;;;;;10.52;5.00;;;7.90;84.80;;;;;;5137610;27;36103;-56
2021/12/10 10:03:22;;;;;;;8.38;5.10;;;8.00;85.80;;;;;;5134813;27;37207;-56
2021/12/10 10:05:49;;;;;;;12.52;5.47;;;8.00;83.80;;;;;;5134757;27;37431;-56
2021/12/10 10:08:21;;;;;;;9.88;4.90;;;8.10;85.30;;;;;;5134319;27;36620;-56
2021/12/10 10:10:51;;;;;;;8.82;4.63;;;8.10;83.70;;;;;;5134366;27;36210;-56
2021/12/10 10:13:24;;;;;;;9.50;4.90;;;8.10;84.60;;;;;;5134662;27;36437;-55
2021/12/10 10:15:56;;;;;;;9.35;4.57;;;8.20;84.50;;;;;;5135741;27;37517;-56
2021/12/10 10:18:25;;;;;;;10.07;4.80;;;8.00;83.50;;;;;;5136834;27;38108;-56
2021/12/10 10:20:56;;;;;;;9.25;4.68;;;8.00;83.40;;;;;;5135989;27;37271;-54
2021/12/10 10:23:25;;;;;;;7.82;4.63;;;7.90;82.70;;;;;;5135302;27;37571;-56
2021/12/10 10:25:55;;;;;;;10.73;4.50;;;7.90;83.80;;;;;;5135757;27;36177;-55
2021/12/10 10:28:24;;;;;;;10.43;5.20;;;7.80;83.50;;;;;;5134279;27;38074;-56
2021/12/10 10:30:58;;;;;;;8.55;4.75;;;7.80;83.90;;;;;;5135716;27;36150;-55
2021/12/10 10:33:28;;;;;;;8.10;4.40;;;7.50;84.20;;;;;;5136091;27;36057;-55
2021/12/10 10:35:59;;;;;;;8.30;4.57;;;7.80;84.60;;;;;;5136398;27;36256;-55
2021/12/10 10:38:28;;;;;;;10.68;5.38;;;7.70;83.30;;;;;;5135070;27;37543;-56
2021/12/10 10:40:59;;;;;;;11.93;4.70;;;7.60;83.80;;;;;;5135514;27;38014;-56
2021/12/10 10:43:31;;;;;;;9.98;4.75;;;7.50;83.80;;;;;;5136248;27;35243;-55
2021/12/10 10:45:59;;;;;;;8.48;3.92;;;7.50;83.10;;;;;;5135708;27;38251;-56
2021/12/10 10:48:28;;;;;;;11.02;4.93;;;7.40;83.70;;;;;;5135290;27;36610;-55
2021/12/10 10:51:00;;;;;;;10.15;4.80;;;7.40;83.70;;;;;;5135952;27;36267;-56
2021/12/10 10:53:32;;;;;;;12.32;5.00;;;7.30;83.70;;;;;;5139299;27;37455;-55
2021/12/10 10:56:04;;;;;;;11.88;3.88;;;7.20;83.80;;;;;;5139532;27;37550;-55
2021/12/10 10:58:37;;;;;;;9.75;4.75;;;7.20;84.70;;;;;;5137332;27;37618;-56
2021/12/10 11:01:14;;;;;;;9.03;5.10;;;7.10;84.70;;;;;;5137393;27;37507;-55
2021/12/10 11:03:53;;;;;;;11.73;4.93;;;6.80;84.60;;;;;;5137785;27;37790;-55
2021/12/10 11:06:26;;;;;;;10.30;4.50;;;7.10;84.90;;;;;;5138042;27;37590;-56
2021/12/10 11:09:03;;;;;;;6.78;4.13;;;7.10;85.30;;;;;;5139251;27;37912;-55
2021/12/10 11:11:35;;;;;;;10.20;4.72;;;7.10;85.50;;;;;;5138913;27;37770;-55
2021/12/10 11:14:07;;;;;;;9.73;4.30;;;7.10;84.80;;;;;;5139986;27;37404;-55
2021/12/10 11:16:37;;;;;;;8.30;4.63;;;7.10;85.20;;;;;;5138092;27;38951;-55
2021/12/10 11:19:08;;;;;;;9.35;3.83;;;7.00;85.60;;;;;;5139370;27;39016;-55
2021/12/10 11:21:42;;;;;;;8.35;4.13;;;7.10;85.50;;;;;;5137745;27;36753;-57
2021/12/10 11:24:17;;;;;;;7.55;3.80;;;7.00;84.90;;;;;;5137436;27;35306;-55
2021/12/10 11:26:55;;;;;;;9.30;3.90;;;7.00;84.20;;;;;;5138724;27;39207;-55
2021/12/10 11:29:35;;;;;;;9.38;4.10;;;7.00;84.50;;;;;;5133919;27;37787;-55
2021/12/10 11:32:06;;;;;;;8.88;4.20;;;7.00;85.50;;;;;;5137756;27;37316;-55
2021/12/10 11:34:51;;;;;;;7.82;3.80;;;7.10;85.80;;;;;;5138619;27;38039;-56
2021/12/10 11:37:39;;;;;;;9.18;3.88;;;7.10;85.10;;;;;;5138325;27;38398;-56
2021/12/10 11:40:22;;;;;;;6.30;3.03;;;7.20;85.30;;;;;;5139293;27;37024;-56
2021/12/10 11:42:57;;;;;;;5.60;3.42;;;7.30;84.40;;;;;;5138521;27;38296;-56
2021/12/10 11:45:34;;;;;;;7.30;3.25;;;7.40;83.20;;;;;;5138599;27;37416;-55
2021/12/10 11:48:09;;;;;;;8.15;3.40;;;7.50;82.70;;;;;;5137671;27;38030;-56
2021/12/10 11:50:40;;;;;;;6.90;3.65;;;7.60;82.70;;;;;;5137578;27;37530;-56
2021/12/10 11:53:12;;;;;;;11.13;3.90;;;7.70;82.20;;;;;;5138657;27;37162;-56
2021/12/10 11:55:56;;;;;;;8.23;3.80;;;7.70;81.40;;;;;;5138196;27;37277;-55
2021/12/10 11:58:24;;;;;;;10.20;4.00;;;7.50;81.10;;;;;;5136847;27;38885;-56
2021/12/10 12:00:53;;;;;;;7.72;3.28;;;7.50;82.60;;;;;;5136237;27;38212;-55
2021/12/10 12:03:23;;;;;;;8.35;3.17;;;7.50;81.90;;;;;;5137168;27;37253;-56
2021/12/10 12:05:52;;;;;;;7.95;2.95;;;7.40;82.70;;;;;;5138020;27;36290;-55
2021/12/10 12:08:20;;;;;;;7.75;3.65;;;7.30;83.30;;;;;;5138297;27;36387;-55
2021/12/10 12:10:51;;;;;;;6.97;3.03;;;7.30;83.30;;;;;;5137187;27;36487;-55
2021/12/10 12:13:25;;;;;;;7.53;3.05;;;7.30;82.70;;;;;;5137789;27;37616;-56
2021/12/10 12:15:56;;;;;;;8.43;2.90;;;7.20;82.70;;;;;;5136391;27;36433;-56
2021/12/10 12:18:29;;;;;;;7.30;2.78;;;7.10;82.80;;;;;;5137369;27;37431;-56
2021/12/10 12:20:59;;;;;;;8.25;3.20;;;7.10;82.80;;;;;;5138355;27;37424;-55
2021/12/10 12:26:16;;;;;;;11.00;3.40;;;7.00;83.50;;;;;;5137995;27;37403;-56
2021/12/10 12:28:46;;;;;;;7.65;3.03;;;7.00;84.20;;;;;;5136913;27;37795;-55
2021/12/10 12:31:18;;;;;;;6.82;3.20;;;7.00;84.30;;;;;;5136728;27;38944;-55
2021/12/10 12:33:58;;;;;;;7.88;3.28;;;7.00;84.30;;;;;;5137579;27;37404;-55
2021/12/10 12:36:29;;;;;;;8.57;3.38;;;7.00;84.10;;;;;;5136822;27;36588;-55
2021/12/10 12:38:57;;;;;;;6.82;3.30;;;7.00;84.20;;;;;;5136589;27;37476;-55
2021/12/10 12:41:26;;;;;;;9.27;3.70;;;6.90;84.00;;;;;;5135677;27;40516;-55
2021/12/10 12:44:23;;;;;;;7.38;3.30;;;6.90;84.10;;;;;;5136243;27;36134;-56
2021/12/10 12:47:07;;;;;;;7.82;3.97;;;6.80;82.70;;;;;;5135847;27;36510;-56
2021/12/10 12:49:53;;;;;;;8.32;3.63;;;6.80;84.00;;;;;;5134123;27;37587;-56
2021/12/10 12:52:23;;;;;;;9.68;3.25;;;6.70;82.40;;;;;;5138755;27;37645;-55
2021/12/10 12:55:29;;;;;;;9.80;3.60;;;6.70;84.30;;;;;;5136818;27;40063;-55
2021/12/10 12:58:03;;;;;;;8.60;3.17;;;6.60;83.40;;;;;;5134550;27;35191;-55
2021/12/10 13:00:39;;;;;;;7.15;3.83;;;6.60;84.20;;;;;;5136124;27;36291;-56
2021/12/10 13:03:11;;;;;;;9.30;3.10;;;6.60;84.40;;;;;;5133353;27;38625;-56
2021/12/10 13:05:42;;;;;;;7.00;3.15;;;6.50;84.40;;;;;;5135336;27;37212;-55